Time;durP1;ratioP1;P1;durP2;ratioP2;P2;SDS_P1;SDS_P2;PMS_P1;PMS_P2;Temp;Humidity;BMP_temperature;BMP_pressure;BME280_temperature;BME280_humidity;BME280_pressure;Samples;Min_cycle;Max_cycle;Signal;HPM_P1;HPM_P2
2021/01/09 00:01:43;;;;;;;6.03;3.75;;;;;;;-2.06;83.46;97740.98;1649033;87;21223;-66
2021/01/09 00:04:11;;;;;;;5.53;4.70;;;;;;;-2.09;83.29;97743.22;1648937;87;21185;-66
2021/01/09 00:06:41;;;;;;;4.80;3.35;;;;;;;-2.11;83.23;97746.74;1649148;87;21187;-66
2021/01/09 00:09:09;;;;;;;4.50;3.65;;;;;;;-2.15;83.14;97749.05;1648718;87;21191;-66
2021/01/09 00:11:37;;;;;;;5.30;4.60;;;;;;;-2.17;83.28;97750.83;1648902;87;21250;-66
2021/01/09 00:14:05;;;;;;;6.00;3.50;;;;;;;-2.33;83.13;97729.55;1648836;87;21175;-66
2021/01/09 00:16:34;;;;;;;5.17;4.65;;;;;;;-2.23;83.14;97758.30;1648873;87;21167;-66
2021/01/09 00:19:04;;;;;;;5.25;4.08;;;;;;;-2.25;83.27;97757.97;1648823;87;21651;-67
2021/01/09 00:21:36;;;;;;;3.83;2.98;;;;;;;-2.27;83.54;97759.78;1648823;87;21612;-67
2021/01/09 00:24:08;;;;;;;7.47;4.87;;;;;;;-2.30;83.41;97763.30;1648759;86;21179;-65
2021/01/09 00:26:36;;;;;;;4.42;3.27;;;;;;;-2.30;83.33;97758.65;1637905;87;21628;-67
2021/01/09 00:29:06;;;;;;;4.35;2.30;;;;;;;-2.31;83.26;97759.53;1635317;87;21611;-68
2021/01/09 00:31:34;;;;;;;3.52;2.98;;;;;;;-2.31;83.27;97760.80;1634611;88;21140;-65
2021/01/09 00:34:03;;;;;;;3.62;2.80;;;;;;;-2.32;83.16;97763.80;1634838;88;21171;-67
2021/01/09 00:36:33;;;;;;;8.43;2.60;;;;;;;-2.32;83.31;97764.23;1634689;88;21613;-65
2021/01/09 00:39:01;;;;;;;4.67;2.50;;;;;;;-2.32;83.06;97772.69;1634756;87;21725;-66
2021/01/09 00:41:32;;;;;;;3.92;2.92;;;;;;;-2.32;83.16;97767.61;1634947;87;21203;-66
2021/01/09 00:44:00;;;;;;;6.62;3.80;;;;;;;-2.32;83.69;97773.14;1634758;88;21175;-65
2021/01/09 00:46:28;;;;;;;4.62;4.15;;;;;;;-2.32;83.42;97771.86;1634622;87;21612;-65
2021/01/09 00:48:57;;;;;;;3.42;3.08;;;;;;;-2.33;83.37;97772.78;1634723;88;21720;-65
2021/01/09 00:51:25;;;;;;;3.85;1.85;;;;;;;-2.33;83.01;97772.78;1634784;88;21604;-65
2021/01/09 00:53:53;;;;;;;4.08;3.42;;;;;;;-2.34;82.92;97773.22;1634721;87;21191;-65
2021/01/09 00:56:22;;;;;;;4.30;2.75;;;;;;;-2.35;82.83;97773.28;1634740;88;21276;-66
2021/01/09 00:58:50;;;;;;;2.85;2.65;;;;;;;-2.36;82.81;97775.44;1615575;88;21172;-66
2021/01/09 01:01:18;;;;;;;2.22;2.05;;;;;;;-2.40;83.06;97781.11;1635039;88;21635;-67
2021/01/09 01:03:47;;;;;;;7.20;4.17;;;;;;;-2.43;83.22;97779.53;1635081;87;21630;-65
2021/01/09 01:06:18;;;;;;;4.03;3.72;;;;;;;-2.44;83.06;97785.50;1634970;87;21298;-65
2021/01/09 01:08:46;;;;;;;4.33;3.67;;;;;;;-2.47;83.56;97785.64;1634439;87;21564;-65
2021/01/09 01:11:20;;;;;;;6.30;4.33;;;;;;;-2.49;84.41;97784.08;1634728;87;21664;-64
2021/01/09 01:13:48;;;;;;;1.95;1.77;;;;;;;-2.52;85.10;97786.28;1634696;88;21160;-65
2021/01/09 01:16:17;;;;;;;2.95;2.72;;;;;;;-2.54;84.99;97778.36;1634678;87;21167;-63
2021/01/09 01:18:45;;;;;;;2.85;2.65;;;;;;;-2.52;84.61;97783.74;1635121;87;21581;-63
2021/01/09 01:21:36;;;;;;;3.22;2.87;;;;;;;-2.51;84.44;97784.57;1634763;88;21268;-65
2021/01/09 01:24:10;;;;;;;4.42;3.27;;;;;;;-2.51;84.45;97784.57;1591630;88;21204;-63
2021/01/09 01:26:38;;;;;;;2.12;2.02;;;;;;;-2.55;85.24;97786.87;1591443;89;21204;-66
2021/01/09 01:29:06;;;;;;;3.25;2.77;;;;;;;-2.58;85.13;97784.47;1624478;88;21219;-66
2021/01/09 01:31:34;;;;;;;2.17;1.92;;;;;;;-2.60;85.09;97783.25;1624703;88;21188;-65
2021/01/09 01:34:02;;;;;;;1.92;1.67;;;;;;;-2.60;84.98;97781.14;1624633;88;21220;-66
2021/01/09 01:36:31;;;;;;;2.70;1.65;;;;;;;-2.63;84.91;97786.38;1624755;88;22410;-64
2021/01/09 01:38:59;;;;;;;3.52;2.85;;;;;;;-2.64;84.69;97785.54;1625215;87;21655;-64
2021/01/09 01:41:27;;;;;;;1.67;1.57;;;;;;;-2.65;84.81;97786.45;1624947;87;21187;-64
2021/01/09 01:43:55;;;;;;;2.92;1.87;;;;;;;-2.64;84.57;97785.98;1624684;87;21152;-66
2021/01/09 01:46:23;;;;;;;5.78;2.35;;;;;;;-2.64;84.35;97785.98;1624698;87;21616;-66
2021/01/09 01:48:52;;;;;;;2.90;2.62;;;;;;;-2.63;84.28;97787.20;1624704;87;21187;-66
2021/01/09 01:51:20;;;;;;;5.55;4.78;;;;;;;-2.62;84.22;97785.05;1624797;88;21326;-66
2021/01/09 01:53:52;;;;;;;2.72;2.52;;;;;;;-2.63;84.16;97785.92;1624729;87;21627;-66
2021/01/09 01:56:19;;;;;;;3.60;3.30;;;;;;;-2.62;84.04;97781.67;1624913;87;21399;-66
2021/01/09 01:58:48;;;;;;;5.92;4.30;;;;;;;-2.64;83.87;97787.25;1624943;88;21329;-66
2021/01/09 02:01:16;;;;;;;4.80;2.77;;;;;;;-2.65;83.73;97787.73;1624783;87;21208;-65
2021/01/09 02:03:45;;;;;;;6.03;2.90;;;;;;;-2.66;83.65;97799.22;1624629;88;21632;-64
2021/01/09 02:09:21;;;;;;;9.93;4.17;;;;;;;-2.69;83.81;97798.91;1656737;86;21564;-66
2021/01/09 02:14:46;;;;;;;1.80;1.47;;;;;;;-2.79;84.17;97803.16;1696199;84;21177;-65
2021/01/09 02:17:16;;;;;;;1.80;1.42;;;;;;;-2.79;83.93;97812.88;1688039;85;21186;-64
2021/01/09 02:19:45;;;;;;;3.02;2.00;;;;;;;-2.78;83.73;97807.36;1697299;84;21153;-65
2021/01/09 02:22:19;;;;;;;2.67;2.15;;;;;;;-2.79;83.73;97809.52;1697381;84;21196;-64
2021/01/09 02:24:47;;;;;;;2.80;2.20;;;;;;;-2.82;83.66;97813.46;1697289;84;21141;-64
2021/01/09 02:27:15;;;;;;;0.95;0.93;;;;;;;-2.85;83.82;97807.24;1697384;84;21569;-65
2021/01/09 02:30:10;;;;;;;2.08;1.40;;;;;;;-2.88;83.57;97814.09;1697575;84;21114;-65
2021/01/09 02:35:51;;;;;;;0.90;0.90;;;;;;;-2.95;83.46;97810.16;1712944;83;21733;-64
2021/01/09 02:38:19;;;;;;;2.87;2.62;;;;;;;-2.96;83.42;97809.77;1712989;84;21337;-64
2021/01/09 02:40:48;;;;;;;4.67;3.10;;;;;;;-2.97;83.32;97804.33;1713355;84;21206;-64
2021/01/09 02:43:16;;;;;;;2.42;2.27;;;;;;;-2.95;83.23;97818.22;1713326;84;21219;-65
2021/01/09 02:45:44;;;;;;;3.20;2.90;;;;;;;-2.97;83.09;97816.20;1713265;84;21808;-64
2021/01/09 02:48:12;;;;;;;2.80;2.55;;;;;;;-3.00;83.04;97811.25;1713443;84;21721;-65
2021/01/09 02:50:41;;;;;;;4.97;3.25;;;;;;;-3.02;82.82;97821.47;1713250;84;21136;-65
2021/01/09 02:53:10;;;;;;;4.92;2.72;;;;;;;-3.03;82.87;97820.25;1713084;84;21313;-63
2021/01/09 02:55:38;;;;;;;3.70;2.45;;;;;;;-3.05;82.86;97826.68;1713056;82;21714;-63
2021/01/09 02:58:06;;;;;;;3.52;2.55;;;;;;;-3.07;82.76;97827.17;1713069;84;21320;-66
2021/01/09 03:00:34;;;;;;;2.62;2.42;;;;;;;-3.08;82.84;97826.81;1713036;84;21309;-65
2021/01/09 03:03:03;;;;;;;3.67;2.90;;;;;;;-3.09;82.85;97824.33;1713276;84;21242;-65
2021/01/09 03:05:32;;;;;;;7.33;2.22;;;;;;;-3.08;82.83;97836.14;1712991;83;21655;-66
2021/01/09 03:08:00;;;;;;;3.00;2.70;;;;;;;-3.09;82.78;97834.48;1713390;84;21579;-65
2021/01/09 03:10:28;;;;;;;3.92;1.87;;;;;;;-3.10;82.65;97839.17;1712911;84;21151;-63
2021/01/09 03:12:56;;;;;;;2.92;2.67;;;;;;;-3.12;82.63;97841.80;1712991;82;21163;-65
2021/01/09 03:15:24;;;;;;;2.17;1.98;;;;;;;-3.11;82.58;97843.89;1712999;84;21154;-64
2021/01/09 03:17:53;;;;;;;3.90;1.90;;;;;;;-3.11;82.58;97845.16;1713273;84;21286;-63
2021/01/09 03:20:21;;;;;;;1.40;1.30;;;;;;;-3.13;82.55;97850.30;1712995;82;21166;-63
2021/01/09 03:22:49;;;;;;;1.57;1.47;;;;;;;-3.14;82.60;97846.53;1713033;82;21143;-63
2021/01/09 03:25:17;;;;;;;1.90;1.12;;;;;;;-3.15;82.59;97850.78;1713198;82;21296;-63
2021/01/09 03:27:46;;;;;;;4.28;1.85;;;;;;;-3.16;82.52;97846.62;1713169;82;21469;-63
2021/01/09 03:30:15;;;;;;;1.47;1.20;;;;;;;-3.16;82.51;97855.50;1713061;83;21332;-65
2021/01/09 03:32:43;;;;;;;2.35;1.52;;;;;;;-3.17;82.45;97853.84;1712973;84;21178;-63
2021/01/09 03:35:13;;;;;;;1.37;1.00;;;;;;;-3.16;82.30;97855.95;1703489;83;21140;-64
2021/01/09 03:37:41;;;;;;;3.25;2.50;;;;;;;-3.20;82.04;97850.16;1698335;84;21163;-62
2021/01/09 03:40:23;;;;;;;2.35;1.67;;;;;;;-3.21;81.94;97861.20;1698536;84;21718;-63
2021/01/09 03:42:51;;;;;;;3.67;1.52;;;;;;;-3.23;81.86;97857.08;1698573;84;21219;-65
2021/01/09 03:45:19;;;;;;;0.95;0.90;;;;;;;-3.25;81.81;97857.13;1651812;87;21222;-64
2021/01/09 03:47:47;;;;;;;3.60;2.30;;;;;;;-3.26;81.74;97860.98;1698551;84;21313;-64
2021/01/09 03:50:16;;;;;;;2.65;2.17;;;;;;;-3.28;81.92;97856.43;1698328;83;21163;-65
2021/01/09 03:52:44;;;;;;;0.82;0.82;;;;;;;-3.29;81.88;97855.59;1651821;87;21168;-65
2021/01/09 03:55:13;;;;;;;1.32;1.22;;;;;;;-3.28;81.85;97862.34;1698502;84;21306;-65
2021/01/09 03:57:41;;;;;;;1.12;1.12;;;;;;;-3.28;81.75;97857.70;1699003;83;21302;-64
2021/01/09 04:00:20;;;;;;;1.35;1.22;;;;;;;-3.30;81.63;97860.28;1652423;85;21591;-64
2021/01/09 04:02:48;;;;;;;0.55;0.55;;;;;;;-3.31;81.49;97861.63;1698564;84;21361;-66
2021/01/09 04:05:16;;;;;;;0.53;0.53;;;;;;;-3.31;81.60;97864.17;1698490;84;21215;-64
2021/01/09 04:07:44;;;;;;;1.75;1.30;;;;;;;-3.36;81.36;97865.17;1651843;85;21644;-66
2021/01/09 04:10:13;;;;;;;4.25;1.00;;;;;;;-3.36;81.37;97866.89;1698523;83;21730;-65
2021/01/09 04:12:41;;;;;;;1.30;0.88;;;;;;;-3.92;81.28;97776.44;1698415;84;21583;-66
2021/01/09 04:18:31;;;;;;;0.40;0.40;;;;;;;-3.36;80.84;97876.60;1666480;86;21173;-65
2021/01/09 04:20:59;;;;;;;1.35;1.25;;;;;;;-3.38;81.10;97880.89;1641100;86;21144;-64
2021/01/09 04:23:27;;;;;;;0.62;0.62;;;;;;;-3.38;80.88;97879.63;1640990;86;21198;-64
2021/01/09 04:25:56;;;;;;;0.78;0.78;;;;;;;-3.43;80.28;97879.00;1641219;86;21462;-64
2021/01/09 04:28:24;;;;;;;0.90;0.72;;;;;;;-3.49;80.31;97881.76;1641146;87;21282;-63
2021/01/09 04:30:52;;;;;;;0.98;0.75;;;;;;;-3.50;80.32;97886.91;1641015;86;21466;-63
2021/01/09 04:33:20;;;;;;;1.32;0.60;;;;;;;-3.51;80.39;97884.81;1641296;86;21211;-64
2021/01/09 04:35:48;;;;;;;0.78;0.72;;;;;;;-3.49;80.26;97891.91;1641242;87;21198;-63
2021/01/09 04:38:17;;;;;;;1.02;0.50;;;;;;;-3.48;80.46;97892.30;1641026;86;21667;-63
2021/01/09 04:40:45;;;;;;;2.98;0.95;;;;;;;-3.46;80.38;97890.95;1641142;86;21178;-63
2021/01/09 04:43:14;;;;;;;1.72;1.37;;;;;;;-3.46;80.50;97896.87;1641144;86;21167;-66
2021/01/09 04:45:44;;;;;;;1.10;1.10;;;;;;;-3.45;80.56;97902.34;1640937;86;21190;-63
2021/01/09 04:48:13;;;;;;;2.35;1.52;;;;;;;-3.45;80.41;97904.05;1640524;86;21278;-63
2021/01/09 04:50:43;;;;;;;1.72;1.12;;;;;;;-3.46;80.39;97898.57;1640894;86;21190;-65
2021/01/09 04:53:13;;;;;;;1.90;1.37;;;;;;;-3.47;80.38;97900.75;1641106;86;21577;-65
2021/01/09 04:55:43;;;;;;;0.55;0.55;;;;;;;-3.50;79.91;97905.95;1618948;87;21179;-65
2021/01/09 04:58:12;;;;;;;1.82;1.22;;;;;;;-3.52;80.09;97911.52;1641037;86;21203;-64
2021/01/09 05:00:41;;;;;;;1.40;0.98;;;;;;;-3.52;80.35;97911.08;1641066;86;21242;-65
2021/01/09 05:03:10;;;;;;;1.77;0.80;;;;;;;-3.52;80.31;97912.34;1641083;86;21595;-62
2021/01/09 05:05:38;;;;;;;1.35;1.12;;;;;;;-3.53;80.25;97917.47;1641140;86;21246;-65
2021/01/09 05:08:06;;;;;;;2.12;1.87;;;;;;;-3.56;80.17;97914.61;1641684;87;21163;-64
2021/01/09 05:10:36;;;;;;;2.65;2.02;;;;;;;-3.58;80.17;97916.36;1641135;87;21167;-65
2021/01/09 05:13:05;;;;;;;3.42;1.75;;;;;;;-3.60;80.15;97920.69;1641160;86;21227;-66
2021/01/09 05:15:41;;;;;;;1.82;1.72;;;;;;;-3.62;80.26;97918.63;1641448;86;21606;-65
2021/01/09 05:18:09;;;;;;;1.65;1.35;;;;;;;-3.62;80.28;97923.70;1641217;87;21254;-65
2021/01/09 05:20:38;;;;;;;3.92;2.22;;;;;;;-3.69;79.64;97927.80;1638811;86;21823;-65
2021/01/09 05:23:06;;;;;;;13.58;1.27;;;;;;;-3.71;79.88;97929.14;1668220;85;21159;-65
2021/01/09 05:25:36;;;;;;;0.85;0.85;;;;;;;-3.75;79.90;97931.84;1656210;86;21560;-65
2021/01/09 05:28:06;;;;;;;1.92;1.77;;;;;;;-3.82;79.63;97934.22;1638917;86;21183;-65
2021/01/09 05:30:34;;;;;;;2.22;1.25;;;;;;;-3.80;79.60;97938.78;1668542;86;21650;-66
2021/01/09 05:33:02;;;;;;;2.12;1.85;;;;;;;-3.84;79.56;97940.17;1668703;86;22449;-64
2021/01/09 05:35:31;;;;;;;3.80;1.30;;;;;;;-3.87;79.59;97939.45;1668574;86;21234;-65
2021/01/09 05:37:59;;;;;;;2.95;1.32;;;;;;;-3.88;79.73;97944.97;1674251;86;21210;-66
2021/01/09 05:40:28;;;;;;;1.40;1.30;;;;;;;-3.85;80.09;97946.55;1673888;84;21598;-64
2021/01/09 05:43:08;;;;;;;1.77;1.42;;;;;;;-3.86;79.90;97948.30;1638708;86;21769;-67
2021/01/09 05:45:41;;;;;;;3.30;1.62;;;;;;;-3.86;80.07;97953.36;1669003;86;21190;-66
2021/01/09 05:48:18;;;;;;;2.62;2.00;;;;;;;-3.86;80.46;97955.91;1670409;85;21246;-67
2021/01/09 05:50:46;;;;;;;0.75;0.75;;;;;;;-3.89;79.89;97958.52;1650698;86;21211;-65
2021/01/09 05:53:46;;;;;;;1.57;0.85;;;;;;;-3.90;79.68;97963.67;1650551;84;21152;-64
2021/01/09 05:56:18;;;;;;;1.57;1.02;;;;;;;-3.95;79.53;97964.27;1669515;86;21199;-65
2021/01/09 05:58:46;;;;;;;0.53;0.53;;;;;;;-4.00;79.04;97963.16;1669745;84;21607;-65
2021/01/09 06:01:25;;;;;;;0.20;0.20;;;;;;;-4.01;79.31;97969.56;1650210;86;21186;-64
2021/01/09 06:04:10;;;;;;;1.07;0.95;;;;;;;-3.98;79.02;97969.02;1669275;86;21710;-64
2021/01/09 06:07:06;;;;;;;1.02;0.90;;;;;;;-3.97;78.89;97978.26;1668045;85;21619;-64
2021/01/09 06:09:45;;;;;;;3.20;0.62;;;;;;;-3.98;78.59;97983.41;1669613;86;21186;-64
2021/01/09 06:12:14;;;;;;;0.20;0.20;;;;;;;-3.96;78.41;97986.70;1669481;84;21227;-65
2021/01/09 06:14:44;;;;;;;1.32;0.82;;;;;;;-3.96;78.71;97995.58;1669743;84;21199;-65
2021/01/09 06:17:14;;;;;;;1.00;0.75;;;;;;;-3.95;78.10;97993.44;1669962;84;21239;-64
2021/01/09 06:19:42;;;;;;;1.62;1.50;;;;;;;-3.98;77.43;98002.42;1650266;86;21231;-64
2021/01/09 06:22:11;;;;;;;0.80;0.62;;;;;;;-3.99;76.96;98003.30;1669761;86;21155;-64
2021/01/09 06:24:40;;;;;;;0.50;0.50;;;;;;;-3.96;77.77;98010.80;1669742;85;21175;-64
2021/01/09 06:27:20;;;;;;;1.42;1.00;;;;;;;-3.91;78.18;98011.48;1669520;86;21587;-64
2021/01/09 06:29:51;;;;;;;1.22;0.78;;;;;;;-3.88;77.93;98014.73;1669449;86;21194;-64
2021/01/09 06:32:20;;;;;;;1.07;1.07;;;;;;;-3.83;77.73;98018.38;1669160;86;21128;-64
2021/01/09 06:34:54;;;;;;;0.75;0.75;;;;;;;-3.81;77.34;98016.61;1669342;86;21655;-65
2021/01/09 06:37:23;;;;;;;1.87;1.60;;;;;;;-3.84;77.14;98021.80;1668945;84;21649;-65
2021/01/09 06:39:53;;;;;;;1.22;1.12;;;;;;;-3.82;76.42;98031.91;1669348;84;21211;-64
2021/01/09 06:42:22;;;;;;;2.27;1.05;;;;;;;-3.82;76.15;98037.81;1669039;85;21622;-64
2021/01/09 06:45:09;;;;;;;;;;;;;;;-3.88;75.09;98040.53;1671881;85;21190;-66
2021/01/09 06:47:38;;;;;;;2.17;1.47;;;;;;;-3.81;75.04;98039.44;1669420;83;20129;-65
2021/01/09 06:50:24;;;;;;;2.33;0.93;;;;;;;-3.81;75.23;98039.91;1669627;85;21541;-66
2021/01/09 06:52:57;;;;;;;0.30;0.30;;;;;;;-3.76;75.20;98035.48;1669829;84;21144;-64
2021/01/09 06:55:43;;;;;;;0.30;0.30;;;;;;;-3.72;74.81;98026.88;1669436;84;21223;-64
2021/01/09 06:58:15;;;;;;;0.72;0.72;;;;;;;-3.68;75.49;98036.88;1669174;84;21199;-65
2021/01/09 07:00:45;;;;;;;2.35;1.30;;;;;;;-3.65;75.07;98040.57;1668888;84;21191;-65
2021/01/09 07:03:15;;;;;;;1.20;0.45;;;;;;;-3.63;74.31;98044.34;1668913;84;21576;-66
2021/01/09 07:05:51;;;;;;;0.85;0.50;;;;;;;-3.60;74.66;98039.97;1668982;84;21204;-66
2021/01/09 07:08:47;;;;;;;0.30;0.30;;;;;;;-3.61;73.87;98048.90;1668990;84;21179;-66
2021/01/09 07:11:17;;;;;;;0.55;0.55;;;;;;;-3.59;73.97;98057.30;1703189;82;21173;-67
2021/01/09 07:13:45;;;;;;;0.50;0.50;;;;;;;-3.50;73.93;98060.80;1686887;82;21189;-64
2021/01/09 07:16:15;;;;;;;2.50;0.47;;;;;;;-3.43;74.66;98063.50;1712728;82;21153;-65
2021/01/09 07:22:24;;;;;;;1.40;1.22;;;;;;;-3.31;75.29;98080.84;1658759;86;21159;-63
2021/01/09 07:27:50;;;;;;;0.42;0.40;;;;;;;-3.19;74.92;98079.57;1683211;85;21657;-63
2021/01/09 07:30:19;;;;;;;0.60;0.60;;;;;;;-3.12;75.37;98083.54;1655580;85;21208;-63
2021/01/09 07:32:50;;;;;;;2.05;1.70;;;;;;;-3.07;75.40;98085.01;1664928;86;21183;-64
2021/01/09 07:35:32;;;;;;;0.82;0.82;;;;;;;-3.01;75.74;98086.07;1664992;85;21164;-63
2021/01/09 07:38:06;;;;;;;0.90;0.90;;;;;;;-2.95;75.04;98092.62;1665124;85;21613;-65
2021/01/09 07:40:57;;;;;;;0.93;0.60;;;;;;;-2.93;74.66;98085.34;1652777;85;21643;-64
2021/01/09 07:43:58;;;;;;;0.75;0.68;;;;;;;-2.93;73.27;98094.23;1651936;85;21172;-66
2021/01/09 07:46:32;;;;;;;1.12;0.72;;;;;;;-2.89;73.04;98089.87;1637541;87;21259;-66
2021/01/09 07:49:08;;;;;;;1.40;1.35;;;;;;;-2.83;72.40;98082.44;1648183;87;21160;-65
2021/01/09 07:54:54;;;;;;;2.72;2.02;;;;;;;-2.64;72.53;98089.31;1562342;90;21211;-66
2021/01/09 07:57:23;;;;;;;1.12;0.82;;;;;;;-2.52;72.78;98099.45;1587292;88;21180;-66
2021/01/09 08:00:18;;;;;;;1.82;1.35;;;;;;;-2.45;72.58;98098.32;1607860;88;21232;-67
2021/01/09 08:02:46;;;;;;;3.17;1.62;;;;;;;-2.35;72.49;98100.08;1639696;86;21155;-66
2021/01/09 08:05:22;;;;;;;3.47;2.35;;;;;;;-2.26;72.71;98101.00;1639852;86;21222;-67
2021/01/09 08:07:57;;;;;;;2.42;1.67;;;;;;;-2.21;72.26;98094.82;1639850;86;21150;-67
2021/01/09 08:10:32;;;;;;;3.25;1.92;;;;;;;-2.13;72.35;98100.88;1640030;86;21259;-63
2021/01/09 08:13:10;;;;;;;2.35;1.87;;;;;;;-2.06;72.07;98111.19;1640983;86;21195;-64
2021/01/09 08:15:42;;;;;;;1.17;1.07;;;;;;;-1.95;71.62;98110.33;1640052;86;21202;-64
2021/01/09 08:18:13;;;;;;;2.95;1.98;;;;;;;-1.85;72.17;98112.88;1639889;86;21519;-67
2021/01/09 08:21:06;;;;;;;4.05;2.80;;;;;;;-1.73;71.56;98105.17;1639705;86;21170;-64
2021/01/09 08:23:34;;;;;;;3.27;2.58;;;;;;;-1.53;72.31;98107.72;1685597;84;21610;-64
2021/01/09 08:26:08;;;;;;;3.27;2.05;;;;;;;-1.31;72.27;98109.72;1687569;84;21730;-65
2021/01/09 08:28:36;;;;;;;18.40;7.45;;;;;;;-1.10;71.81;98110.08;1652423;85;21221;-65
2021/01/09 08:31:08;;;;;;;7.70;4.70;;;;;;;-0.81;72.32;98119.41;1639050;85;21168;-65
2021/01/09 08:33:36;;;;;;;12.00;4.62;;;;;;;-0.53;71.85;98115.98;1653453;85;21184;-66
2021/01/09 08:36:06;;;;;;;24.15;10.53;;;;;;;-0.13;70.53;98118.78;1627240;86;21214;-66
2021/01/09 08:38:34;;;;;;;12.28;6.20;;;;;;;0.30;70.57;98113.25;1685445;84;21630;-65
2021/01/09 08:41:03;;;;;;;5.17;3.52;;;;;;;0.76;66.90;98110.92;1685717;83;21169;-71
2021/01/09 08:43:31;;;;;;;5.53;3.15;;;;;;;0.92;63.82;98108.78;1681654;83;21170;-68
2021/01/09 08:46:00;;;;;;;5.22;2.70;;;;;;;1.07;63.33;98113.55;1685784;83;21143;-67
2021/01/09 08:48:37;;;;;;;6.62;3.45;;;;;;;1.32;60.62;98106.20;1685686;83;21193;-68
2021/01/09 08:51:12;;;;;;;6.37;2.87;;;;;;;1.59;60.69;98105.20;1685737;83;21171;-68
2021/01/09 08:54:03;;;;;;;6.15;3.20;;;;;;;1.85;58.65;98102.02;1685763;83;21138;-67
2021/01/09 08:56:33;;;;;;;6.67;3.45;;;;;;;2.20;58.27;98099.20;1685736;83;21213;-67
2021/01/09 08:59:28;;;;;;;7.47;2.90;;;;;;;2.32;55.04;98098.05;1685511;83;21194;-66
2021/01/09 09:02:04;;;;;;;3.62;2.70;;;;;;;2.91;55.11;98093.70;1639325;86;21194;-67
2021/01/09 09:04:36;;;;;;;6.53;3.83;;;;;;;3.23;53.41;98091.76;1638999;86;21825;-66
2021/01/09 09:07:08;;;;;;;8.75;3.45;;;;;;;3.61;54.00;98090.66;1618624;87;21169;-70
2021/01/09 09:09:41;;;;;;;5.78;3.05;;;;;;;4.12;50.79;98079.62;1638488;87;21620;-68
2021/01/09 09:12:34;;;;;;;8.13;3.00;;;;;;;4.54;49.86;98075.95;1638628;87;21175;-67
2021/01/09 09:15:10;;;;;;;3.87;2.52;;;;;;;4.48;49.29;98076.81;1715706;83;21154;-66
2021/01/09 09:17:38;;;;;;;4.65;3.72;;;;;;;5.04;47.31;98069.95;1730181;83;21159;-68
2021/01/09 09:20:10;;;;;;;4.20;2.67;;;;;;;5.40;47.33;98071.72;1730258;82;21127;-68
2021/01/09 09:22:39;;;;;;;3.22;1.67;;;;;;;5.44;45.82;98061.56;1729572;83;21134;-67
2021/01/09 09:25:08;;;;;;;6.22;2.42;;;;;;;5.57;44.27;98059.74;1730629;83;21559;-67
2021/01/09 09:27:36;;;;;;;3.10;2.20;;;;;;;6.10;43.25;98066.23;1705572;83;21630;-68
2021/01/09 09:30:14;;;;;;;2.10;1.45;;;;;;;6.31;41.71;98055.24;1709415;83;21244;-67
2021/01/09 09:32:45;;;;;;;2.00;1.40;;;;;;;6.63;40.74;98049.80;1723611;83;21233;-67
2021/01/09 09:35:29;;;;;;;2.62;1.77;;;;;;;6.64;40.46;98049.69;1730506;83;21139;-68
2021/01/09 09:38:04;;;;;;;3.35;1.80;;;;;;;7.01;39.49;98040.41;1730551;83;21187;-67
2021/01/09 09:40:35;;;;;;;2.90;1.87;;;;;;;7.48;39.50;98041.39;1730981;83;21566;-67
2021/01/09 09:43:16;;;;;;;4.35;2.52;;;;;;;7.66;39.22;98039.59;1730729;83;21539;-67
2021/01/09 09:46:05;;;;;;;7.80;2.50;;;;;;;7.61;38.52;98041.24;1705578;83;21167;-67
2021/01/09 09:48:36;;;;;;;3.47;2.70;;;;;;;6.74;40.88;98047.22;1722550;83;21142;-66
2021/01/09 09:51:10;;;;;;;4.90;1.87;;;;;;;6.33;40.19;98044.36;1730398;83;21186;-67
2021/01/09 09:53:42;;;;;;;5.00;2.65;;;;;;;6.45;40.41;98034.42;1730634;83;21186;-66
2021/01/09 09:56:15;;;;;;;5.20;2.75;;;;;;;5.02;42.75;98045.26;1729282;82;21226;-68
2021/01/09 09:58:43;;;;;;;4.58;2.10;;;;;;;5.65;42.12;98043.73;1730787;83;21158;-66
2021/01/09 10:01:42;;;;;;;6.78;2.52;;;;;;;5.88;42.04;98041.64;1730787;83;21146;-65
2021/01/09 10:04:16;;;;;;;4.33;2.40;;;;;;;6.25;41.35;98042.81;1621510;88;21191;-66
2021/01/09 10:06:44;;;;;;;7.95;4.83;;;;;;;7.60;40.95;98031.38;1620822;88;21304;-66
2021/01/09 10:09:17;;;;;;;8.13;4.60;;;;;;;7.13;41.54;98029.13;1621453;88;21209;-66
2021/01/09 10:11:50;;;;;;;7.93;4.70;;;;;;;5.90;45.00;98040.25;1621454;87;21307;-68
2021/01/09 10:14:20;;;;;;;12.28;5.17;;;;;;;5.98;45.75;98035.36;1584074;90;21335;-68
2021/01/09 10:16:49;;;;;;;8.98;5.03;;;;;;;6.61;45.69;98034.91;1580500;90;21206;-67
2021/01/09 10:19:18;;;;;;;13.22;6.15;;;;;;;5.95;46.25;98038.97;1562064;91;21272;-67
2021/01/09 10:21:47;;;;;;;7.95;5.33;;;;;;;5.57;47.64;98033.98;1581803;90;21238;-67
2021/01/09 10:24:16;;;;;;;8.53;4.80;;;;;;;5.10;48.35;98036.05;1581683;90;21163;-65
2021/01/09 10:26:44;;;;;;;11.05;5.95;;;;;;;5.21;48.85;98032.75;1561375;90;21193;-66
2021/01/09 10:29:15;;;;;;;9.18;5.42;;;;;;;5.05;49.46;98034.74;1584634;89;21193;-65
2021/01/09 10:31:43;;;;;;;12.20;5.03;;;;;;;5.32;48.41;98035.84;1588083;89;21164;-67
2021/01/09 10:34:13;;;;;;;9.25;4.92;;;;;;;5.43;48.50;98027.72;1578779;89;21703;-67
2021/01/09 10:36:41;;;;;;;15.65;6.47;;;;;;;5.51;48.47;98027.17;1556549;91;21661;-65
2021/01/09 10:39:09;;;;;;;9.40;5.40;;;;;;;5.31;48.75;98025.18;1552671;91;21272;-68
2021/01/09 10:41:39;;;;;;;8.53;4.85;;;;;;;4.92;50.04;98024.92;1551116;92;21251;-67
2021/01/09 10:44:08;;;;;;;23.75;10.82;;;;;;;6.13;47.45;98022.16;1560736;91;21199;-68
2021/01/09 10:46:36;;;;;;;12.55;7.15;;;;;;;6.48;46.54;98022.57;1618905;88;21203;-65
2021/01/09 10:49:04;;;;;;;26.05;14.25;;;;;;;6.43;45.69;98020.33;1596058;89;21192;-67
2021/01/09 10:51:34;;;;;;;10.72;5.67;;;;;;;7.24;44.77;98017.98;1613224;88;21609;-67
2021/01/09 10:54:03;;;;;;;7.85;4.20;;;;;;;6.76;44.80;98011.80;1621647;88;21182;-66
2021/01/09 10:56:31;;;;;;;6.97;4.37;;;;;;;7.96;44.01;98013.38;1591906;88;21182;-68
2021/01/09 10:59:01;;;;;;;7.03;4.22;;;;;;;8.67;42.37;97998.84;1620298;88;21187;-67
2021/01/09 11:01:29;;;;;;;8.65;3.77;;;;;;;8.92;40.14;97994.50;1621567;87;21644;-68
2021/01/09 11:03:57;;;;;;;10.60;4.72;;;;;;;9.35;39.19;97989.01;1633464;86;21707;-67
2021/01/09 11:06:25;;;;;;;6.97;4.60;;;;;;;7.99;41.05;97997.59;1636272;86;21196;-68
2021/01/09 11:08:53;;;;;;;8.90;4.25;;;;;;;9.07;38.96;97992.35;1634617;86;21190;-66
2021/01/09 11:11:22;;;;;;;7.90;4.10;;;;;;;8.33;40.16;97994.83;1639085;86;21631;-65
2021/01/09 11:13:50;;;;;;;9.25;4.28;;;;;;;8.55;40.70;98003.76;1629505;86;21159;-63
2021/01/09 11:16:39;;;;;;;6.50;5.10;;;;;;;7.92;41.11;98005.52;1619823;86;21175;-65
2021/01/09 11:19:10;;;;;;;8.30;3.87;;;;;;;8.32;40.98;98002.27;1647832;85;21315;-65
2021/01/09 11:21:39;;;;;;;8.05;5.33;;;;;;;7.91;41.78;98006.92;1648068;85;21242;-73
2021/01/09 11:24:09;;;;;;;7.45;3.95;;;;;;;6.82;44.18;98014.37;1643876;86;21185;-65
2021/01/09 11:26:39;;;;;;;9.85;4.65;;;;;;;8.50;42.09;97991.67;1636547;85;21591;-66
2021/01/09 11:29:09;;;;;;;8.88;5.62;;;;;;;7.84;44.12;97997.56;1647655;85;21698;-67
2021/01/09 11:31:43;;;;;;;6.90;4.65;;;;;;;7.87;46.09;97992.14;1647842;85;21234;-67
2021/01/09 11:34:11;;;;;;;6.97;4.10;;;;;;;8.25;46.55;97994.65;1633152;85;21635;-66
2021/01/09 11:36:44;;;;;;;6.92;4.08;;;;;;;8.22;46.50;97994.41;1641981;85;21221;-67
2021/01/09 11:39:16;;;;;;;6.42;4.15;;;;;;;7.99;47.88;97996.31;1647522;85;21679;-67
2021/01/09 11:41:47;;;;;;;9.55;5.00;;;;;;;8.20;46.49;98000.67;1651489;85;21731;-67
2021/01/09 11:44:17;;;;;;;7.15;3.90;;;;;;;7.54;48.38;97998.28;1648291;85;21185;-66
2021/01/09 11:46:46;;;;;;;7.85;4.53;;;;;;;8.86;45.97;97993.73;1643886;86;21198;-67
2021/01/09 11:49:15;;;;;;;6.22;3.65;;;;;;;9.41;43.91;97982.48;1609290;89;21214;-66
2021/01/09 11:51:44;;;;;;;7.72;4.22;;;;;;;8.75;44.83;97988.66;1644890;85;21182;-67
2021/01/09 11:54:29;;;;;;;7.25;4.65;;;;;;;9.28;44.50;97992.27;1764529;79;22734;-68
2021/01/09 11:57:01;;;;;;;6.87;4.05;;;;;;;9.98;43.31;97989.44;1737731;82;21162;-67
2021/01/09 11:59:29;;;;;;;8.18;4.45;;;;;;;10.69;41.36;97993.27;1745177;82;21139;-67
2021/01/09 12:01:57;;;;;;;9.98;5.83;;;;;;;10.98;40.53;97990.52;1738917;82;21591;-67
2021/01/09 12:04:26;;;;;;;8.03;4.70;;;;;;;8.84;44.92;97989.15;1752260;82;21168;-67
2021/01/09 12:06:58;;;;;;;9.30;4.17;;;;;;;9.07;44.33;97985.88;1752580;82;21627;-67
2021/01/09 12:09:26;;;;;;;9.18;4.62;;;;;;;9.88;42.45;97982.94;1752948;82;21124;-66
2021/01/09 12:12:14;;;;;;;7.75;4.28;;;;;;;8.94;43.90;97984.02;1753005;82;21575;-66
2021/01/09 12:14:42;;;;;;;14.05;7.45;;;;;;;10.14;41.15;97980.61;1644914;87;21629;-67
2021/01/09 12:17:11;;;;;;;53.17;26.65;;;;;;;10.71;40.10;97980.12;1645242;87;21205;-69
2021/01/09 12:19:39;;;;;;;10.98;6.85;;;;;;;11.89;38.27;97982.56;1644887;86;21222;-67